ORB748J LPLA-CYHZ
Flight info
| Callsign | ORB748J |
|---|---|
| Flight time | N/A |
| Altitude | 43000 |
| Route | 40N030W 43N040W 44N050W DCT BOBTU/N0479F430 DCT NANSO DCT AGMIR LIRLA5 |
| Aircraft | C700/M-SBDGHM1RWXY/LB2 |
Departure
| Time | 2026-04-28 08:33 |
|---|---|
| Airport | Lajes Airport (LPLA) |
Arrival
| Time | N/A |
|---|---|
| Airport | Halifax / Stanfield International Airport (CYHZ) |
| Time | Latitude | Longitude | Altitude | Speed | Heading |
|---|---|---|---|---|---|
| 2026-04-28 08:24 | 38.75657 | -27.08796 | 179 ft | 0 kts | 93° |
| 2026-04-28 08:27 | 38.75666 | -27.08785 | 179 ft | 8 kts | 2° |
| 2026-04-28 08:28 | 38.75745 | -27.08862 | 178 ft | 16 kts | 322° |
| 2026-04-28 08:28 | 38.75848 | -27.08899 | 178 ft | 16 kts | 5° |
| 2026-04-28 08:28 | 38.75958 | -27.08888 | 179 ft | 16 kts | 5° |
| 2026-04-28 08:28 | 38.76058 | -27.08940 | 178 ft | 17 kts | 318° |
| 2026-04-28 08:29 | 38.76168 | -27.09057 | 176 ft | 23 kts | 321° |
| 2026-04-28 08:29 | 38.76293 | -27.09191 | 173 ft | 24 kts | 320° |
| 2026-04-28 08:29 | 38.76426 | -27.09330 | 173 ft | 25 kts | 321° |
| 2026-04-28 08:29 | 38.76563 | -27.09471 | 172 ft | 25 kts | 321° |
| 2026-04-28 08:30 | 38.76700 | -27.09615 | 171 ft | 26 kts | 321° |
| 2026-04-28 08:30 | 38.76839 | -27.09763 | 170 ft | 26 kts | 323° |
| 2026-04-28 08:30 | 38.76982 | -27.09908 | 166 ft | 26 kts | 320° |
| 2026-04-28 08:30 | 38.77123 | -27.10055 | 164 ft | 26 kts | 321° |
| 2026-04-28 08:31 | 38.77263 | -27.10201 | 164 ft | 26 kts | 321° |
| 2026-04-28 08:31 | 38.77403 | -27.10347 | 163 ft | 26 kts | 321° |
| 2026-04-28 08:31 | 38.77528 | -27.10461 | 163 ft | 19 kts | 339° |
| 2026-04-28 08:31 | 38.77538 | -27.10499 | 162 ft | 9 kts | 127° |
| 2026-04-28 08:32 | 38.77525 | -27.10474 | 163 ft | 0 kts | 143° |
| 2026-04-28 08:32 | 38.77428 | -27.10375 | 163 ft | 41 kts | 141° |
| 2026-04-28 08:32 | 38.77077 | -27.10008 | 165 ft | 87 kts | 140° |
| 2026-04-28 08:32 | 38.76507 | -27.09414 | 183 ft | 122 kts | 142° |
| 2026-04-28 08:33 | 38.75786 | -27.08654 | 255 ft | 146 kts | 142° |
| 2026-04-28 08:33 | 38.74952 | -27.07814 | 564 ft | 155 kts | 143° |
| 2026-04-28 08:33 | 38.74110 | -27.06977 | 1029 ft | 155 kts | 145° |
| 2026-04-28 08:33 | 38.73265 | -27.06014 | 1477 ft | 177 kts | 144° |
| 2026-04-28 08:34 | 38.72308 | -27.04854 | 2199 ft | 200 kts | 143° |
| 2026-04-28 08:34 | 38.71657 | -27.03979 | 2736 ft | 211 kts | 132° |
| 2026-04-28 08:34 | 38.71144 | -27.02105 | 3300 ft | 242 kts | 101° |
| 2026-04-28 08:34 | 38.71521 | -26.99964 | 3847 ft | 264 kts | 62° |
| 2026-04-28 08:35 | 38.73448 | -26.97921 | 5812 ft | 285 kts | 20° |
| 2026-04-28 08:35 | 38.75407 | -26.97544 | 7362 ft | 287 kts | 354° |
| 2026-04-28 08:35 | 38.77377 | -26.97896 | 8983 ft | 285 kts | 340° |
| 2026-04-28 08:35 | 38.79080 | -26.99063 | 10531 ft | 274 kts | 312° |
| 2026-04-28 08:36 | 38.80161 | -27.00988 | 12017 ft | 262 kts | 290° |
| 2026-04-28 08:36 | 38.80643 | -27.02430 | 12972 ft | 264 kts | 286° |
| 2026-04-28 08:36 | 38.81286 | -27.04724 | 13910 ft | 280 kts | 283° |
| 2026-04-28 08:36 | 38.81905 | -27.07108 | 14840 ft | 295 kts | 283° |
| 2026-04-28 08:37 | 38.82556 | -27.09690 | 15661 ft | 313 kts | 283° |
| 2026-04-28 08:37 | 38.83231 | -27.12404 | 16660 ft | 322 kts | 283° |
| 2026-04-28 08:37 | 38.83914 | -27.15161 | 17861 ft | 327 kts | 283° |
| 2026-04-28 08:37 | 38.84608 | -27.17970 | 18906 ft | 333 kts | 283° |
| 2026-04-28 08:38 | 38.85312 | -27.20811 | 19940 ft | 337 kts | 283° |
| 2026-04-28 08:38 | 38.86032 | -27.23699 | 20927 ft | 341 kts | 283° |
| 2026-04-28 08:38 | 38.86764 | -27.26611 | 21910 ft | 346 kts | 283° |
| 2026-04-28 08:38 | 38.87511 | -27.29565 | 22878 ft | 350 kts | 283° |
| 2026-04-28 08:39 | 38.88273 | -27.32556 | 23796 ft | 355 kts | 283° |
| 2026-04-28 08:39 | 38.89049 | -27.35581 | 24591 ft | 359 kts | 283° |
| 2026-04-28 08:39 | 38.89834 | -27.38635 | 25391 ft | 362 kts | 283° |
| 2026-04-28 08:39 | 38.90627 | -27.41720 | 26178 ft | 366 kts | 283° |
| 2026-04-28 08:40 | 38.91427 | -27.44838 | 26939 ft | 370 kts | 283° |
| 2026-04-28 08:40 | 38.92235 | -27.47988 | 27704 ft | 373 kts | 283° |
| 2026-04-28 08:40 | 38.93050 | -27.51171 | 28446 ft | 377 kts | 283° |
| 2026-04-28 08:40 | 38.94080 | -27.54308 | 29192 ft | 388 kts | 294° |
| 2026-04-28 08:41 | 38.95675 | -27.57166 | 29904 ft | 401 kts | 306° |
| 2026-04-28 08:41 | 38.97782 | -27.59602 | 30505 ft | 413 kts | 316° |
| 2026-04-28 08:41 | 38.99892 | -27.62091 | 31043 ft | 410 kts | 306° |
| 2026-04-28 08:41 | 39.01565 | -27.65024 | 31578 ft | 405 kts | 294° |
| 2026-04-28 08:42 | 39.02828 | -27.68249 | 32084 ft | 404 kts | 288° |
| 2026-04-28 08:42 | 39.03948 | -27.71575 | 32571 ft | 407 kts | 287° |
| 2026-04-28 08:42 | 39.05130 | -27.74909 | 33028 ft | 413 kts | 290° |
| 2026-04-28 08:42 | 39.06554 | -27.78158 | 33466 ft | 421 kts | 295° |
| 2026-04-28 08:43 | 39.08109 | -27.81368 | 33872 ft | 424 kts | 295° |
| 2026-04-28 08:43 | 39.09571 | -27.84662 | 34230 ft | 424 kts | 291° |
| 2026-04-28 08:43 | 39.10947 | -27.88023 | 34583 ft | 425 kts | 291° |
| 2026-04-28 08:43 | 39.12374 | -27.91378 | 34921 ft | 429 kts | 293° |
| 2026-04-28 08:44 | 39.13866 | -27.94714 | 35245 ft | 431 kts | 294° |
| 2026-04-28 08:44 | 39.15350 | -27.98078 | 35553 ft | 433 kts | 292° |
| 2026-04-28 08:44 | 39.16786 | -28.01442 | 35854 ft | 434 kts | 292° |
| 2026-04-28 08:44 | 39.18243 | -28.04855 | 36154 ft | 436 kts | 292° |
| 2026-04-28 08:45 | 39.19730 | -28.08274 | 36453 ft | 439 kts | 293° |
| 2026-04-28 08:45 | 39.21254 | -28.11780 | 36567 ft | 444 kts | 293° |
| 2026-04-28 08:45 | 39.22732 | -28.15215 | 36926 ft | 443 kts | 292° |
| 2026-04-28 08:45 | 39.24225 | -28.18689 | 37312 ft | 442 kts | 293° |
| 2026-04-28 08:46 | 39.25717 | -28.22156 | 37683 ft | 442 kts | 293° |
| 2026-04-28 08:46 | 39.27206 | -28.25617 | 38052 ft | 441 kts | 293° |
| 2026-04-28 08:46 | 39.28689 | -28.29075 | 38397 ft | 440 kts | 293° |
| 2026-04-28 08:46 | 39.30169 | -28.32530 | 38721 ft | 439 kts | 293° |
| 2026-04-28 08:47 | 39.31647 | -28.35982 | 38975 ft | 439 kts | 293° |
| 2026-04-28 08:47 | 39.33122 | -28.39429 | 39205 ft | 439 kts | 293° |
| 2026-04-28 08:47 | 39.34602 | -28.42892 | 39447 ft | 439 kts | 293° |
| 2026-04-28 08:47 | 39.36074 | -28.46342 | 39680 ft | 439 kts | 294° |
| 2026-04-28 08:48 | 39.37552 | -28.49809 | 39909 ft | 439 kts | 294° |
| 2026-04-28 08:48 | 39.39022 | -28.53262 | 40133 ft | 439 kts | 294° |
| 2026-04-28 08:48 | 39.40496 | -28.56725 | 40345 ft | 439 kts | 294° |
| 2026-04-28 08:48 | 39.41967 | -28.60187 | 40578 ft | 439 kts | 294° |
| 2026-04-28 08:49 | 39.43437 | -28.63652 | 40800 ft | 439 kts | 294° |
| 2026-04-28 08:49 | 39.44906 | -28.67117 | 41017 ft | 439 kts | 294° |
| 2026-04-28 08:49 | 39.46374 | -28.70583 | 41230 ft | 439 kts | 294° |
| 2026-04-28 08:49 | 39.47840 | -28.74049 | 41443 ft | 439 kts | 294° |
| 2026-04-28 08:50 | 39.49305 | -28.77516 | 41655 ft | 439 kts | 294° |
| 2026-04-28 08:50 | 39.50768 | -28.80983 | 41861 ft | 439 kts | 295° |
| 2026-04-28 08:50 | 39.52231 | -28.84451 | 42058 ft | 439 kts | 295° |
| 2026-04-28 08:50 | 39.53691 | -28.87920 | 42256 ft | 439 kts | 295° |
| 2026-04-28 08:51 | 39.55151 | -28.91389 | 42454 ft | 439 kts | 295° |
| 2026-04-28 08:51 | 39.58078 | -28.98362 | 42816 ft | 437 kts | 295° |
| 2026-04-28 08:51 | 39.59521 | -29.01797 | 43279 ft | 432 kts | 295° |
| 2026-04-28 08:52 | 39.60954 | -29.05222 | 43468 ft | 432 kts | 295° |
| 2026-04-28 08:52 | 39.62382 | -29.08642 | 43649 ft | 432 kts | 295° |
| 2026-04-28 08:52 | 39.63814 | -29.12069 | 43835 ft | 432 kts | 295° |
| 2026-04-28 08:52 | 39.65246 | -29.15497 | 43989 ft | 433 kts | 295° |
| 2026-04-28 08:53 | 39.66684 | -29.18948 | 43979 ft | 437 kts | 295° |
| 2026-04-28 08:53 | 39.69562 | -29.25858 | 43984 ft | 432 kts | 295° |
| 2026-04-28 08:54 | 39.72385 | -29.32661 | 43979 ft | 431 kts | 295° |
| 2026-04-28 08:54 | 39.75270 | -29.39623 | 43982 ft | 436 kts | 295° |
| 2026-04-28 08:55 | 39.78127 | -29.46530 | 43984 ft | 432 kts | 295° |
| 2026-04-28 08:55 | 39.80939 | -29.53353 | 43982 ft | 432 kts | 295° |
| 2026-04-28 08:56 | 39.83797 | -29.60295 | 43982 ft | 437 kts | 295° |
| 2026-04-28 08:56 | 39.86651 | -29.67244 | 43993 ft | 433 kts | 295° |
| 2026-04-28 08:57 | 39.89472 | -29.74133 | 43990 ft | 431 kts | 294° |
| 2026-04-28 08:57 | 39.92313 | -29.81086 | 43988 ft | 438 kts | 295° |
| 2026-04-28 08:58 | 39.95161 | -29.88062 | 43986 ft | 433 kts | 294° |
| 2026-04-28 08:58 | 39.97973 | -29.94979 | 43978 ft | 432 kts | 294° |
| 2026-04-28 08:59 | 40.00742 | -30.01999 | 43987 ft | 437 kts | 291° |
| 2026-04-28 08:59 | 40.03251 | -30.09056 | 43977 ft | 422 kts | 291° |
| 2026-04-28 09:00 | 40.05746 | -30.16027 | 43966 ft | 428 kts | 291° |
| 2026-04-28 09:00 | 40.08271 | -30.23113 | 43974 ft | 429 kts | 291° |
| 2026-04-28 09:01 | 40.10766 | -30.30129 | 43972 ft | 424 kts | 291° |
| 2026-04-28 09:01 | 40.13232 | -30.37089 | 43970 ft | 428 kts | 291° |
| 2026-04-28 09:02 | 40.15743 | -30.44183 | 43968 ft | 431 kts | 291° |
| 2026-04-28 09:02 | 40.18254 | -30.51298 | 43969 ft | 430 kts | 291° |
| 2026-04-28 09:03 | 40.20742 | -30.58367 | 43961 ft | 426 kts | 291° |
| 2026-04-28 09:03 | 40.23212 | -30.65405 | 43964 ft | 428 kts | 291° |
| 2026-04-28 09:04 | 40.25712 | -30.72538 | 43969 ft | 431 kts | 291° |
| 2026-04-28 09:04 | 40.28197 | -30.79649 | 43960 ft | 427 kts | 291° |
| 2026-04-28 09:05 | 40.30661 | -30.86723 | 43963 ft | 428 kts | 291° |
| 2026-04-28 09:05 | 40.33149 | -30.93875 | 43960 ft | 433 kts | 291° |
| 2026-04-28 09:06 | 40.35630 | -31.01025 | 43962 ft | 429 kts | 291° |
| 2026-04-28 09:06 | 40.38070 | -31.08083 | 43950 ft | 428 kts | 291° |
| 2026-04-28 09:07 | 40.40543 | -31.15250 | 43953 ft | 434 kts | 291° |
| 2026-04-28 09:07 | 40.43023 | -31.22451 | 43951 ft | 431 kts | 291° |
| 2026-04-28 09:08 | 40.45476 | -31.29599 | 43953 ft | 428 kts | 291° |
| 2026-04-28 09:08 | 40.47927 | -31.36758 | 43950 ft | 432 kts | 291° |
| 2026-04-28 09:09 | 40.50401 | -31.43998 | 43947 ft | 434 kts | 291° |
| 2026-04-28 09:09 | 40.52857 | -31.51205 | 43943 ft | 430 kts | 291° |
| 2026-04-28 09:10 | 40.55296 | -31.58385 | 43942 ft | 432 kts | 291° |
| 2026-04-28 09:10 | 40.57757 | -31.65643 | 43946 ft | 435 kts | 291° |
| 2026-04-28 09:11 | 40.60210 | -31.72895 | 43940 ft | 432 kts | 291° |
| 2026-04-28 09:11 | 40.62636 | -31.80093 | 43941 ft | 430 kts | 291° |
| 2026-04-28 09:12 | 40.65071 | -31.87333 | 43938 ft | 435 kts | 291° |
| 2026-04-28 09:12 | 40.67522 | -31.94632 | 43934 ft | 435 kts | 291° |
| 2026-04-28 09:13 | 40.69951 | -32.01895 | 43934 ft | 432 kts | 290° |
| 2026-04-28 09:13 | 40.72368 | -32.09136 | 43935 ft | 433 kts | 291° |
| 2026-04-28 09:14 | 40.74803 | -32.16453 | 43928 ft | 438 kts | 291° |
| 2026-04-28 09:14 | 40.77240 | -32.23786 | 43934 ft | 434 kts | 291° |
| 2026-04-28 09:15 | 40.79649 | -32.31066 | 43934 ft | 432 kts | 291° |
| 2026-04-28 09:15 | 40.82066 | -32.38385 | 43935 ft | 438 kts | 291° |
| 2026-04-28 09:16 | 40.84494 | -32.45752 | 43929 ft | 437 kts | 291° |
| 2026-04-28 09:16 | 40.86903 | -32.53086 | 43926 ft | 433 kts | 291° |
| 2026-04-28 09:17 | 40.89303 | -32.60416 | 43925 ft | 437 kts | 291° |
| 2026-04-28 09:17 | 40.91727 | -32.67830 | 43924 ft | 439 kts | 291° |
| 2026-04-28 09:18 | 40.94115 | -32.75156 | 43916 ft | 435 kts | 291° |
| 2026-04-28 09:18 | 40.96504 | -32.82509 | 43915 ft | 437 kts | 291° |
| 2026-04-28 09:19 | 40.98916 | -32.89949 | 43917 ft | 441 kts | 291° |
| 2026-04-28 09:19 | 41.01319 | -32.97380 | 43912 ft | 437 kts | 291° |
| 2026-04-28 09:20 | 41.03698 | -33.04762 | 43911 ft | 436 kts | 290° |
| 2026-04-28 09:20 | 41.06088 | -33.12198 | 43909 ft | 441 kts | 291° |
| 2026-04-28 09:21 | 41.08488 | -33.19676 | 43907 ft | 439 kts | 291° |
| 2026-04-28 09:21 | 41.10861 | -33.27102 | 43905 ft | 436 kts | 291° |
| 2026-04-28 09:22 | 41.13228 | -33.34525 | 43898 ft | 439 kts | 291° |
| 2026-04-28 09:22 | 41.15611 | -33.42016 | 43897 ft | 441 kts | 291° |
| 2026-04-28 09:23 | 41.17585 | -33.48238 | 43901 ft | 439 kts | 291° |
| 2026-04-28 09:23 | 41.19941 | -33.55684 | 43884 ft | 436 kts | 291° |
| 2026-04-28 09:24 | 41.22295 | -33.63146 | 43880 ft | 440 kts | 291° |
| 2026-04-28 09:24 | 41.24665 | -33.70676 | 43878 ft | 442 kts | 291° |
| 2026-04-28 09:25 | 41.27026 | -33.78200 | 43891 ft | 439 kts | 291° |
| 2026-04-28 09:25 | 41.29362 | -33.85666 | 43889 ft | 437 kts | 291° |
| 2026-04-28 09:26 | 41.31707 | -33.93183 | 43887 ft | 443 kts | 291° |
| 2026-04-28 09:26 | 41.34066 | -34.00761 | 43884 ft | 442 kts | 290° |
| 2026-04-28 09:27 | 41.37563 | -34.12042 | 43871 ft | 438 kts | 290° |
| 2026-04-28 09:27 | 41.39876 | -34.19528 | 43879 ft | 443 kts | 290° |
| 2026-04-28 09:28 | 41.42238 | -34.27190 | 43880 ft | 443 kts | 290° |
| 2026-04-28 09:28 | 41.44546 | -34.34703 | 43874 ft | 439 kts | 290° |
| 2026-04-28 09:29 | 41.46870 | -34.42293 | 43867 ft | 443 kts | 290° |
| 2026-04-28 09:29 | 41.49204 | -34.49929 | 43874 ft | 444 kts | 290° |
| 2026-04-28 09:30 | 41.51504 | -34.57481 | 43874 ft | 440 kts | 290° |
| 2026-04-28 09:30 | 41.53800 | -34.65043 | 43867 ft | 441 kts | 290° |
| 2026-04-28 09:31 | 41.56112 | -34.72676 | 43867 ft | 445 kts | 290° |
| 2026-04-28 09:31 | 41.58424 | -34.80329 | 43872 ft | 443 kts | 290° |
| 2026-04-28 09:32 | 41.60713 | -34.87935 | 43869 ft | 440 kts | 290° |
| 2026-04-28 09:32 | 41.62994 | -34.95532 | 43872 ft | 443 kts | 290° |
| 2026-04-28 09:33 | 41.65291 | -35.03205 | 43878 ft | 445 kts | 290° |
| 2026-04-28 09:33 | 41.67579 | -35.10868 | 43869 ft | 442 kts | 290° |
| 2026-04-28 09:34 | 41.69845 | -35.18486 | 43870 ft | 440 kts | 290° |
| 2026-04-28 09:34 | 41.72115 | -35.26137 | 43870 ft | 445 kts | 290° |
| 2026-04-28 09:35 | 41.74399 | -35.33851 | 43872 ft | 444 kts | 290° |
| 2026-04-28 09:35 | 41.76661 | -35.41522 | 43873 ft | 441 kts | 290° |
| 2026-04-28 09:36 | 41.78908 | -35.49163 | 43871 ft | 442 kts | 290° |
| 2026-04-28 09:36 | 41.81170 | -35.56875 | 43880 ft | 446 kts | 290° |
| 2026-04-28 09:37 | 41.83427 | -35.64596 | 43874 ft | 444 kts | 290° |
| 2026-04-28 09:37 | 41.85665 | -35.72273 | 43871 ft | 440 kts | 290° |
| 2026-04-28 09:38 | 41.87893 | -35.79940 | 43866 ft | 443 kts | 290° |
| 2026-04-28 09:38 | 41.90136 | -35.87682 | 43872 ft | 446 kts | 290° |
| 2026-04-28 09:39 | 41.92371 | -35.95417 | 43877 ft | 442 kts | 290° |
| 2026-04-28 09:39 | 41.94567 | -36.03043 | 43873 ft | 439 kts | 290° |
| 2026-04-28 09:40 | 41.96773 | -36.10728 | 43874 ft | 444 kts | 290° |
| 2026-04-28 09:40 | 41.98997 | -36.18492 | 43881 ft | 444 kts | 290° |
| 2026-04-28 09:41 | 42.01201 | -36.26219 | 43879 ft | 440 kts | 290° |
| 2026-04-28 09:41 | 42.03384 | -36.33892 | 43879 ft | 441 kts | 290° |
| 2026-04-28 09:42 | 42.05586 | -36.41651 | 43882 ft | 445 kts | 290° |
| 2026-04-28 09:42 | 42.07781 | -36.49414 | 43885 ft | 442 kts | 290° |
| 2026-04-28 09:43 | 42.09955 | -36.57123 | 43883 ft | 439 kts | 290° |
| 2026-04-28 09:43 | 42.12120 | -36.64828 | 43883 ft | 442 kts | 290° |
| 2026-04-28 09:44 | 42.14304 | -36.72620 | 43889 ft | 444 kts | 290° |
| 2026-04-28 09:44 | 42.16457 | -36.80327 | 43886 ft | 440 kts | 290° |
| 2026-04-28 09:45 | 42.18604 | -36.88039 | 43890 ft | 440 kts | 290° |
| 2026-04-28 09:45 | 42.20761 | -36.95806 | 43892 ft | 445 kts | 290° |
| 2026-04-28 09:46 | 42.22919 | -37.03604 | 43896 ft | 442 kts | 290° |
| 2026-04-28 09:46 | 42.25058 | -37.11359 | 43895 ft | 439 kts | 290° |
| 2026-04-28 09:47 | 42.27182 | -37.19082 | 43899 ft | 442 kts | 290° |
| 2026-04-28 09:47 | 42.29324 | -37.26893 | 43900 ft | 444 kts | 290° |
| 2026-04-28 09:48 | 42.31452 | -37.34680 | 43897 ft | 440 kts | 290° |
| 2026-04-28 09:48 | 42.33560 | -37.42417 | 43900 ft | 438 kts | 290° |
| 2026-04-28 09:49 | 42.35675 | -37.50204 | 43899 ft | 444 kts | 290° |
| 2026-04-28 09:49 | 42.37796 | -37.58034 | 43899 ft | 442 kts | 290° |
| 2026-04-28 09:50 | 42.39895 | -37.65816 | 43901 ft | 439 kts | 290° |
| 2026-04-28 09:50 | 42.41978 | -37.73558 | 43893 ft | 439 kts | 290° |
| 2026-04-28 09:51 | 42.44075 | -37.81375 | 43893 ft | 444 kts | 290° |
| 2026-04-28 09:51 | 42.46171 | -37.89219 | 43903 ft | 441 kts | 290° |
| 2026-04-28 09:52 | 42.48244 | -37.96999 | 43898 ft | 437 kts | 290° |
| 2026-04-28 09:52 | 42.50306 | -38.04763 | 43893 ft | 440 kts | 290° |
| 2026-04-28 09:53 | 42.52387 | -38.12622 | 43899 ft | 443 kts | 290° |
| 2026-04-28 09:53 | 42.54451 | -38.20442 | 43901 ft | 439 kts | 290° |
| 2026-04-28 09:54 | 42.56481 | -38.28163 | 43899 ft | 437 kts | 290° |
| 2026-04-28 09:54 | 42.58527 | -38.35966 | 43896 ft | 441 kts | 290° |
| 2026-04-28 09:55 | 42.60582 | -38.43827 | 43903 ft | 441 kts | 290° |
| 2026-04-28 09:55 | 42.62618 | -38.51646 | 43905 ft | 438 kts | 290° |
| 2026-04-28 09:56 | 42.64637 | -38.59420 | 43902 ft | 436 kts | 290° |
| 2026-04-28 09:56 | 42.66661 | -38.67238 | 43901 ft | 441 kts | 290° |
| 2026-04-28 09:57 | 42.68688 | -38.75101 | 43907 ft | 440 kts | 290° |
| 2026-04-28 09:57 | 42.70700 | -38.82924 | 43900 ft | 437 kts | 290° |
| 2026-04-28 09:58 | 42.72694 | -38.90709 | 43902 ft | 435 kts | 290° |
| 2026-04-28 09:58 | 42.74692 | -38.98529 | 43902 ft | 440 kts | 290° |
| 2026-04-28 09:59 | 42.76699 | -39.06415 | 43907 ft | 440 kts | 290° |
| 2026-04-28 09:59 | 42.78688 | -39.14255 | 43908 ft | 436 kts | 290° |
| 2026-04-28 10:00 | 42.80660 | -39.22054 | 43906 ft | 436 kts | 290° |
| 2026-04-28 10:00 | 42.82631 | -39.29870 | 43908 ft | 442 kts | 290° |
| 2026-04-28 10:01 | 42.84624 | -39.37808 | 43905 ft | 438 kts | 290° |
| 2026-04-28 10:01 | 42.86572 | -39.45583 | 44101 ft | 436 kts | 287° |
| 2026-04-28 10:02 | 42.87552 | -39.49507 | 43968 ft | 438 kts | 287° |
| 2026-04-28 10:02 | 42.88529 | -39.53434 | 43942 ft | 437 kts | 287° |
| 2026-04-28 10:02 | 42.90475 | -39.61256 | 43945 ft | 434 kts | 287° |
| 2026-04-28 10:03 | 42.92417 | -39.69097 | 43945 ft | 439 kts | 287° |
| 2026-04-28 10:03 | 42.94371 | -39.77005 | 43947 ft | 439 kts | 287° |
| 2026-04-28 10:04 | 42.96305 | -39.84863 | 43951 ft | 435 kts | 287° |
| 2026-04-28 10:04 | 42.98224 | -39.92687 | 43947 ft | 435 kts | 287° |
| 2026-04-28 10:05 | 43.00091 | -40.00599 | 43945 ft | 439 kts | 282° |
| 2026-04-28 10:05 | 43.01271 | -40.08759 | 43955 ft | 436 kts | 280° |
| 2026-04-28 10:06 | 43.02464 | -40.16851 | 43955 ft | 433 kts | 280° |
| 2026-04-28 10:06 | 43.03612 | -40.24926 | 43952 ft | 434 kts | 280° |
| 2026-04-28 10:07 | 43.04785 | -40.33073 | 43956 ft | 438 kts | 280° |
| 2026-04-28 10:07 | 43.05942 | -40.41226 | 43958 ft | 435 kts | 279° |
| 2026-04-28 10:08 | 43.07088 | -40.49312 | 43958 ft | 432 kts | 279° |
| 2026-04-28 10:08 | 43.08226 | -40.57397 | 43956 ft | 435 kts | 279° |
| 2026-04-28 10:09 | 43.09370 | -40.65558 | 43965 ft | 438 kts | 279° |
| 2026-04-28 10:09 | 43.10507 | -40.73724 | 43964 ft | 435 kts | 279° |
| 2026-04-28 10:10 | 43.11623 | -40.81778 | 43965 ft | 432 kts | 279° |
| 2026-04-28 10:10 | 43.12738 | -40.89877 | 43968 ft | 435 kts | 279° |
| 2026-04-28 10:11 | 43.13860 | -40.98057 | 43972 ft | 438 kts | 279° |
| 2026-04-28 10:11 | 43.14974 | -41.06235 | 43972 ft | 435 kts | 279° |
| 2026-04-28 10:12 | 43.15890 | -41.12995 | 43975 ft | 433 kts | 279° |
| 2026-04-28 10:12 | 43.17167 | -41.22463 | 43966 ft | 434 kts | 279° |
| 2026-04-28 10:13 | 43.18079 | -41.29268 | 43980 ft | 438 kts | 279° |
| 2026-04-28 10:13 | 43.19171 | -41.37455 | 43987 ft | 434 kts | 279° |
| 2026-04-28 10:14 | 43.20246 | -41.45566 | 43982 ft | 432 kts | 279° |
| 2026-04-28 10:14 | 43.21322 | -41.53723 | 43986 ft | 438 kts | 279° |
| 2026-04-28 10:15 | 43.22399 | -41.61937 | 43995 ft | 437 kts | 279° |
| 2026-04-28 10:15 | 43.23463 | -41.70103 | 44001 ft | 434 kts | 279° |
| 2026-04-28 10:16 | 43.24516 | -41.78231 | 43999 ft | 433 kts | 279° |
| 2026-04-28 10:16 | 43.25569 | -41.86410 | 44001 ft | 437 kts | 279° |
| 2026-04-28 10:17 | 43.26625 | -41.94644 | 44007 ft | 438 kts | 279° |
| 2026-04-28 10:17 | 43.27666 | -42.02832 | 44013 ft | 435 kts | 279° |
| 2026-04-28 10:18 | 43.28699 | -42.10989 | 44017 ft | 433 kts | 279° |
| 2026-04-28 10:18 | 43.29727 | -42.19162 | 44021 ft | 437 kts | 279° |
| 2026-04-28 10:19 | 43.30757 | -42.27401 | 44030 ft | 438 kts | 279° |
| 2026-04-28 10:19 | 43.31777 | -42.35609 | 44032 ft | 434 kts | 279° |
| 2026-04-28 10:20 | 43.32786 | -42.43777 | 44027 ft | 434 kts | 279° |
| 2026-04-28 10:20 | 43.33795 | -42.51993 | 44035 ft | 438 kts | 279° |
| 2026-04-28 10:21 | 43.34803 | -42.60257 | 44042 ft | 438 kts | 279° |
| 2026-04-28 10:21 | 43.35799 | -42.68474 | 44052 ft | 434 kts | 279° |
| 2026-04-28 10:22 | 43.36782 | -42.76634 | 44053 ft | 433 kts | 279° |
| 2026-04-28 10:22 | 43.37766 | -42.84851 | 44049 ft | 439 kts | 279° |
| 2026-04-28 10:23 | 43.38752 | -42.93128 | 44056 ft | 437 kts | 279° |
| 2026-04-28 10:23 | 43.39716 | -43.01290 | 44060 ft | 434 kts | 279° |
| 2026-04-28 10:24 | 43.40686 | -43.09542 | 44070 ft | 436 kts | 279° |
| 2026-04-28 10:24 | 43.41651 | -43.17807 | 44074 ft | 439 kts | 279° |
| 2026-04-28 10:25 | 43.42610 | -43.26080 | 44077 ft | 437 kts | 279° |
| 2026-04-28 10:25 | 43.43557 | -43.34306 | 44074 ft | 434 kts | 279° |
| 2026-04-28 10:26 | 43.44496 | -43.42509 | 44080 ft | 436 kts | 279° |
| 2026-04-28 10:26 | 43.45432 | -43.50735 | 44090 ft | 440 kts | 279° |
| 2026-04-28 10:27 | 43.46368 | -43.59024 | 44098 ft | 436 kts | 279° |
| 2026-04-28 10:27 | 43.47291 | -43.67253 | 44096 ft | 433 kts | 279° |
| 2026-04-28 10:28 | 43.48208 | -43.75476 | 44096 ft | 437 kts | 279° |
| 2026-04-28 10:29 | 43.49583 | -43.87920 | 44107 ft | 436 kts | 278° |
| 2026-04-28 10:29 | 43.50484 | -43.96147 | 44112 ft | 433 kts | 279° |
| 2026-04-28 10:30 | 43.51379 | -44.04370 | 44115 ft | 437 kts | 278° |
| 2026-04-28 10:30 | 43.52275 | -44.12658 | 44124 ft | 437 kts | 279° |
| 2026-04-28 10:31 | 43.53161 | -44.20913 | 44129 ft | 434 kts | 278° |
| 2026-04-28 10:31 | 43.54035 | -44.29124 | 44134 ft | 433 kts | 278° |
| 2026-04-28 10:32 | 43.54907 | -44.37351 | 44141 ft | 434 kts | 278° |
| 2026-04-28 10:32 | 43.55770 | -44.45585 | 44149 ft | 434 kts | 278° |
| 2026-04-28 10:33 | 43.56629 | -44.53810 | 44150 ft | 433 kts | 278° |
| 2026-04-28 10:33 | 43.57481 | -44.62030 | 44156 ft | 432 kts | 278° |
| 2026-04-28 10:34 | 43.58324 | -44.70234 | 44161 ft | 432 kts | 278° |
| 2026-04-28 10:34 | 43.59160 | -44.78423 | 44170 ft | 430 kts | 278° |
| 2026-04-28 10:35 | 43.59986 | -44.86579 | 44174 ft | 429 kts | 278° |
| 2026-04-28 10:35 | 43.60809 | -44.94742 | 44176 ft | 429 kts | 278° |
| 2026-04-28 10:36 | 43.61622 | -45.02900 | 44182 ft | 429 kts | 278° |
| 2026-04-28 10:36 | 43.62427 | -45.11010 | 44190 ft | 429 kts | 278° |
| 2026-04-28 10:37 | 43.63229 | -45.19172 | 44191 ft | 430 kts | 278° |
| 2026-04-28 10:37 | 43.64029 | -45.27360 | 44190 ft | 430 kts | 278° |
| 2026-04-28 10:38 | 43.64823 | -45.35551 | 44200 ft | 430 kts | 278° |
| 2026-04-28 10:38 | 43.65610 | -45.43740 | 44206 ft | 430 kts | 278° |
| 2026-04-28 10:39 | 43.66393 | -45.51929 | 44211 ft | 430 kts | 278° |
| 2026-04-28 10:39 | 43.67164 | -45.60095 | 43906 ft | 422 kts | 279° |
| 2026-04-28 10:39 | 43.67539 | -45.64080 | 44059 ft | 417 kts | 279° |
| 2026-04-28 10:40 | 43.67914 | -45.68056 | 44193 ft | 418 kts | 279° |
| 2026-04-28 10:40 | 43.68664 | -45.76098 | 44219 ft | 425 kts | 279° |
| 2026-04-28 10:41 | 43.69413 | -45.84195 | 44227 ft | 424 kts | 278° |
| 2026-04-28 10:41 | 43.70155 | -45.92273 | 44223 ft | 423 kts | 278° |
| 2026-04-28 10:42 | 43.70889 | -46.00340 | 44230 ft | 423 kts | 278° |
| 2026-04-28 10:42 | 43.71618 | -46.08405 | 44232 ft | 423 kts | 278° |
| 2026-04-28 10:43 | 43.72342 | -46.16488 | 44242 ft | 424 kts | 278° |
| 2026-04-28 10:43 | 43.73061 | -46.24571 | 44238 ft | 423 kts | 278° |
| 2026-04-28 10:44 | 43.73773 | -46.32644 | 44245 ft | 423 kts | 278° |
| 2026-04-28 10:44 | 43.74478 | -46.40710 | 44250 ft | 422 kts | 278° |
| 2026-04-28 10:45 | 43.75178 | -46.48768 | 44254 ft | 423 kts | 278° |
| 2026-04-28 10:45 | 43.75870 | -46.56834 | 44254 ft | 422 kts | 278° |
| 2026-04-28 10:46 | 43.76558 | -46.64891 | 44266 ft | 421 kts | 278° |
| 2026-04-28 10:46 | 43.77240 | -46.72950 | 44264 ft | 422 kts | 278° |
| 2026-04-28 10:47 | 43.77914 | -46.81007 | 44269 ft | 421 kts | 278° |
| 2026-04-28 10:47 | 43.78584 | -46.89061 | 44271 ft | 421 kts | 278° |
| 2026-04-28 10:48 | 43.79242 | -46.97045 | 44269 ft | 420 kts | 278° |
| 2026-04-28 10:48 | 43.79897 | -47.05072 | 44280 ft | 419 kts | 278° |
| 2026-04-28 10:49 | 43.80547 | -47.13086 | 44279 ft | 420 kts | 278° |
| 2026-04-28 10:49 | 43.81191 | -47.21127 | 44277 ft | 421 kts | 278° |
| 2026-04-28 10:50 | 43.81833 | -47.29188 | 44284 ft | 421 kts | 277° |
| 2026-04-28 10:50 | 43.82469 | -47.37260 | 44284 ft | 423 kts | 277° |
| 2026-04-28 10:51 | 43.83101 | -47.45353 | 44290 ft | 423 kts | 277° |
| 2026-04-28 10:51 | 43.83737 | -47.53560 | 44292 ft | 433 kts | 277° |
| 2026-04-28 10:52 | 43.84378 | -47.61936 | 44303 ft | 442 kts | 277° |
| 2026-04-28 10:52 | 43.85025 | -47.70452 | 44312 ft | 444 kts | 277° |
| 2026-04-28 10:53 | 43.85659 | -47.78914 | 44320 ft | 439 kts | 277° |
| 2026-04-28 10:53 | 43.86287 | -47.87348 | 44321 ft | 443 kts | 277° |
| 2026-04-28 10:54 | 43.86913 | -47.95853 | 44325 ft | 442 kts | 277° |
| 2026-04-28 10:54 | 43.87527 | -48.04283 | 44325 ft | 438 kts | 277° |
| 2026-04-28 10:55 | 43.88136 | -48.12726 | 44329 ft | 443 kts | 277° |
| 2026-04-28 10:55 | 43.88738 | -48.21165 | 44331 ft | 442 kts | 277° |
| 2026-04-28 10:56 | 43.89334 | -48.29610 | 44337 ft | 439 kts | 277° |
| 2026-04-28 10:56 | 43.89921 | -48.38015 | 44334 ft | 439 kts | 277° |
| 2026-04-28 10:57 | 43.90506 | -48.46476 | 44335 ft | 443 kts | 276° |
| 2026-04-28 10:57 | 43.90992 | -48.53579 | 44337 ft | 440 kts | 276° |
| 2026-04-28 10:58 | 43.91562 | -48.61996 | 44339 ft | 437 kts | 276° |
| 2026-04-28 10:58 | 43.92125 | -48.70404 | 44349 ft | 440 kts | 276° |
| 2026-04-28 10:59 | 43.92683 | -48.78831 | 44348 ft | 441 kts | 276° |
| 2026-04-28 10:59 | 43.93235 | -48.87272 | 44346 ft | 438 kts | 276° |
| 2026-04-28 11:00 | 43.93779 | -48.95665 | 44350 ft | 436 kts | 276° |
| 2026-04-28 11:00 | 43.94317 | -49.04069 | 44354 ft | 440 kts | 276° |
| 2026-04-28 11:01 | 43.94852 | -49.12533 | 44357 ft | 439 kts | 276° |
| 2026-04-28 11:01 | 43.95378 | -49.20945 | 44357 ft | 436 kts | 276° |
| 2026-04-28 11:02 | 43.95894 | -49.29311 | 44368 ft | 436 kts | 276° |
| 2026-04-28 11:02 | 43.96410 | -49.37760 | 44372 ft | 440 kts | 276° |
| 2026-04-28 11:03 | 43.96918 | -49.46192 | 44370 ft | 437 kts | 276° |
| 2026-04-28 11:03 | 43.97417 | -49.54572 | 44370 ft | 435 kts | 276° |
| 2026-04-28 11:04 | 43.97912 | -49.62995 | 44376 ft | 441 kts | 275° |
| 2026-04-28 11:04 | 43.98402 | -49.71453 | 44375 ft | 438 kts | 275° |
| 2026-04-28 11:05 | 43.98884 | -49.79859 | 44379 ft | 435 kts | 275° |
| 2026-04-28 11:05 | 43.99357 | -49.88227 | 44381 ft | 437 kts | 275° |
| 2026-04-28 11:06 | 43.99830 | -49.96687 | 44391 ft | 439 kts | 275° |
| 2026-04-28 11:06 | 44.00288 | -50.05073 | 44395 ft | 437 kts | 275° |
| 2026-04-28 11:07 | 44.00730 | -50.13487 | 44393 ft | 436 kts | 275° |
| 2026-04-28 11:07 | 44.01172 | -50.21866 | 44394 ft | 435 kts | 275° |
| 2026-04-28 11:08 | 44.01607 | -50.30313 | 44392 ft | 437 kts | 275° |
| 2026-04-28 11:08 | 44.02036 | -50.38729 | 44401 ft | 439 kts | 275° |
| 2026-04-28 11:09 | 44.02459 | -50.47168 | 44402 ft | 436 kts | 275° |
| 2026-04-28 11:09 | 44.02873 | -50.55552 | 44407 ft | 434 kts | 275° |
| 2026-04-28 11:10 | 44.03282 | -50.63941 | 44407 ft | 437 kts | 275° |
| 2026-04-28 11:10 | 44.03687 | -50.72389 | 44404 ft | 438 kts | 275° |
| 2026-04-28 11:11 | 44.04084 | -50.80820 | 44411 ft | 436 kts | 274° |
| 2026-04-28 11:11 | 44.04474 | -50.89217 | 44411 ft | 434 kts | 274° |
| 2026-04-28 11:12 | 44.04857 | -50.97575 | 44413 ft | 433 kts | 274° |
| 2026-04-28 11:12 | 44.05234 | -51.05960 | 44416 ft | 437 kts | 274° |
| 2026-04-28 11:13 | 44.05608 | -51.14420 | 44420 ft | 438 kts | 274° |
| 2026-04-28 11:13 | 44.05974 | -51.22842 | 44420 ft | 435 kts | 274° |
| 2026-04-28 11:14 | 44.06333 | -51.31239 | 44418 ft | 433 kts | 274° |
| 2026-04-28 11:14 | 44.06685 | -51.39609 | 44421 ft | 436 kts | 274° |
| 2026-04-28 11:15 | 44.07035 | -51.48061 | 44435 ft | 438 kts | 274° |
| 2026-04-28 11:15 | 44.07374 | -51.56443 | 44444 ft | 436 kts | 274° |
| 2026-04-28 11:16 | 44.07708 | -51.64836 | 44428 ft | 434 kts | 274° |
| 2026-04-28 11:16 | 44.08036 | -51.73212 | 44431 ft | 436 kts | 274° |
| 2026-04-28 11:17 | 44.08361 | -51.81680 | 44432 ft | 438 kts | 274° |
| 2026-04-28 11:17 | 44.08677 | -51.90113 | 44429 ft | 435 kts | 274° |
| 2026-04-28 11:18 | 44.08986 | -51.98491 | 44433 ft | 434 kts | 274° |
| 2026-04-28 11:18 | 44.09292 | -52.06940 | 44433 ft | 439 kts | 273° |
| 2026-04-28 11:19 | 44.09590 | -52.15383 | 44435 ft | 436 kts | 273° |
| 2026-04-28 11:19 | 44.09881 | -52.23775 | 44435 ft | 433 kts | 273° |
| 2026-04-28 11:20 | 44.10166 | -52.32192 | 44435 ft | 438 kts | 273° |
| 2026-04-28 11:20 | 44.10447 | -52.40660 | 44437 ft | 437 kts | 273° |
| 2026-04-28 11:21 | 44.10720 | -52.49087 | 44438 ft | 435 kts | 273° |
| 2026-04-28 11:21 | 44.10986 | -52.57476 | 44441 ft | 434 kts | 273° |
| 2026-04-28 11:22 | 44.11248 | -52.65925 | 44444 ft | 439 kts | 273° |
| 2026-04-28 11:22 | 44.11504 | -52.74395 | 44445 ft | 436 kts | 273° |
| 2026-04-28 11:23 | 44.11829 | -52.82799 | 44456 ft | 433 kts | 278° |
| 2026-04-28 11:23 | 44.12888 | -52.91063 | 44455 ft | 437 kts | 280° |
| 2026-04-28 11:24 | 44.13939 | -52.99422 | 44463 ft | 437 kts | 280° |
| 2026-04-28 11:24 | 44.15002 | -53.07677 | 44462 ft | 435 kts | 280° |
| 2026-04-28 11:25 | 44.16044 | -53.15956 | 44462 ft | 435 kts | 280° |
| 2026-04-28 11:25 | 44.17098 | -53.24308 | 44470 ft | 439 kts | 280° |
| 2026-04-28 11:26 | 44.18142 | -53.32669 | 44465 ft | 437 kts | 280° |
| 2026-04-28 11:26 | 44.19176 | -53.40980 | 44464 ft | 434 kts | 280° |
| 2026-04-28 11:27 | 44.20201 | -53.49284 | 44457 ft | 438 kts | 280° |
| 2026-04-28 11:27 | 44.21232 | -53.57675 | 44465 ft | 439 kts | 279° |
| 2026-04-28 11:28 | 44.22251 | -53.66030 | 44461 ft | 436 kts | 279° |
| 2026-04-28 11:28 | 44.23258 | -53.74342 | 44456 ft | 434 kts | 279° |
| 2026-04-28 11:29 | 44.24261 | -53.82662 | 44460 ft | 437 kts | 279° |
| 2026-04-28 11:29 | 44.25266 | -53.91065 | 44462 ft | 439 kts | 279° |
| 2026-04-28 11:30 | 44.26262 | -53.99435 | 44460 ft | 436 kts | 279° |
| 2026-04-28 11:30 | 44.27734 | -54.11920 | 44466 ft | 434 kts | 279° |
| 2026-04-28 11:31 | 44.28715 | -54.20306 | 44468 ft | 440 kts | 279° |
| 2026-04-28 11:31 | 44.29690 | -54.28691 | 44464 ft | 436 kts | 279° |
| 2026-04-28 11:32 | 44.30652 | -54.37030 | 44459 ft | 434 kts | 279° |
| 2026-04-28 11:32 | 44.31612 | -54.45398 | 44461 ft | 440 kts | 279° |
| 2026-04-28 11:33 | 44.32572 | -54.53822 | 44463 ft | 438 kts | 279° |
| 2026-04-28 11:33 | 44.33519 | -54.62195 | 44455 ft | 435 kts | 279° |
| 2026-04-28 11:34 | 44.34457 | -54.70541 | 44458 ft | 436 kts | 279° |
| 2026-04-28 11:34 | 44.35398 | -54.78969 | 44465 ft | 440 kts | 279° |
| 2026-04-28 11:35 | 44.36331 | -54.87388 | 44461 ft | 437 kts | 279° |
| 2026-04-28 11:35 | 44.37247 | -54.95709 | 44454 ft | 435 kts | 279° |
| 2026-04-28 11:36 | 44.38162 | -55.04079 | 44464 ft | 437 kts | 279° |
| 2026-04-28 11:36 | 44.38998 | -55.11775 | 44469 ft | 441 kts | 279° |
| 2026-04-28 11:37 | 44.39902 | -55.20165 | 44468 ft | 439 kts | 279° |
| 2026-04-28 11:37 | 44.40805 | -55.28596 | 44461 ft | 437 kts | 278° |
| 2026-04-28 11:38 | 44.41698 | -55.36998 | 44456 ft | 436 kts | 278° |
| 2026-04-28 11:38 | 44.42585 | -55.45401 | 44460 ft | 438 kts | 278° |
| 2026-04-28 11:39 | 44.43474 | -55.53878 | 44461 ft | 441 kts | 278° |
| 2026-04-28 11:39 | 44.44354 | -55.62346 | 44463 ft | 439 kts | 278° |
| 2026-04-28 11:40 | 44.45224 | -55.70777 | 44456 ft | 437 kts | 278° |
| 2026-04-28 11:40 | 44.46090 | -55.79220 | 44455 ft | 441 kts | 278° |
| 2026-04-28 11:41 | 44.46958 | -55.87754 | 44463 ft | 442 kts | 278° |
| 2026-04-28 11:41 | 44.47814 | -55.96242 | 44455 ft | 439 kts | 278° |
| 2026-04-28 11:42 | 44.48661 | -56.04692 | 44455 ft | 438 kts | 278° |
| 2026-04-28 11:42 | 44.49830 | -56.13117 | 44462 ft | 443 kts | 282° |
| 2026-04-28 11:43 | 44.50894 | -56.20135 | 44469 ft | 442 kts | 282° |
| 2026-04-28 11:43 | 44.52156 | -56.28540 | 44474 ft | 440 kts | 282° |
| 2026-04-28 11:44 | 44.53430 | -56.36918 | 44468 ft | 439 kts | 282° |
| 2026-04-28 11:44 | 44.54684 | -56.45321 | 44466 ft | 442 kts | 282° |
| 2026-04-28 11:45 | 44.55952 | -56.53795 | 44472 ft | 444 kts | 282° |
| 2026-04-28 11:45 | 44.57204 | -56.62251 | 44470 ft | 442 kts | 282° |
| 2026-04-28 11:46 | 44.58450 | -56.70684 | 44467 ft | 441 kts | 282° |
| 2026-04-28 11:46 | 44.59688 | -56.79097 | 44465 ft | 441 kts | 282° |
| 2026-04-28 11:47 | 44.60930 | -56.87500 | 44458 ft | 444 kts | 282° |
| 2026-04-28 11:47 | 44.62138 | -56.96022 | 44461 ft | 445 kts | 282° |
| 2026-04-28 11:48 | 44.63378 | -57.04511 | 44462 ft | 443 kts | 282° |
| 2026-04-28 11:48 | 44.64586 | -57.12976 | 44458 ft | 441 kts | 282° |
| 2026-04-28 11:49 | 44.65794 | -57.21414 | 44457 ft | 441 kts | 282° |
| 2026-04-28 11:49 | 44.66998 | -57.29904 | 44458 ft | 445 kts | 282° |
| 2026-04-28 11:50 | 44.68204 | -57.38446 | 44453 ft | 445 kts | 282° |
| 2026-04-28 11:50 | 44.69401 | -57.46974 | 44446 ft | 443 kts | 281° |
| 2026-04-28 11:51 | 44.70586 | -57.55466 | 44456 ft | 442 kts | 281° |
| 2026-04-28 11:51 | 44.71765 | -57.63955 | 44459 ft | 444 kts | 281° |
| 2026-04-28 11:52 | 44.72945 | -57.72514 | 44459 ft | 448 kts | 281° |
| 2026-04-28 11:52 | 44.74122 | -57.81095 | 44448 ft | 445 kts | 281° |
| 2026-04-28 11:53 | 44.75286 | -57.89632 | 44448 ft | 443 kts | 281° |
| 2026-04-28 11:53 | 44.76440 | -57.98143 | 44441 ft | 443 kts | 281° |
| 2026-04-28 11:54 | 44.77594 | -58.06705 | 44444 ft | 447 kts | 281° |
| 2026-04-28 11:54 | 44.78747 | -58.15313 | 44449 ft | 447 kts | 281° |
| 2026-04-28 11:55 | 44.79889 | -58.23892 | 44442 ft | 445 kts | 281° |
| 2026-04-28 11:55 | 44.81018 | -58.32421 | 44443 ft | 443 kts | 281° |
| 2026-04-28 11:56 | 44.82146 | -58.40990 | 44444 ft | 447 kts | 281° |
| 2026-04-28 11:56 | 44.83266 | -58.49560 | 44443 ft | 447 kts | 281° |
| 2026-04-28 11:57 | 44.84382 | -58.58148 | 44442 ft | 444 kts | 281° |
| 2026-04-28 11:57 | 44.85487 | -58.66702 | 44445 ft | 444 kts | 281° |
| 2026-04-28 11:58 | 44.86594 | -58.75323 | 44441 ft | 449 kts | 281° |
| 2026-04-28 11:58 | 44.87696 | -58.83965 | 44439 ft | 446 kts | 281° |
| 2026-04-28 11:59 | 44.88786 | -58.92560 | 44438 ft | 444 kts | 281° |
| 2026-04-28 11:59 | 44.89869 | -59.01158 | 44434 ft | 448 kts | 281° |
| 2026-04-28 12:00 | 44.90956 | -59.09839 | 44432 ft | 450 kts | 281° |
| 2026-04-28 12:00 | 44.92033 | -59.18507 | 44430 ft | 448 kts | 280° |
| 2026-04-28 12:01 | 44.93100 | -59.27143 | 44431 ft | 446 kts | 280° |
| 2026-04-28 12:01 | 44.94157 | -59.35756 | 44426 ft | 446 kts | 280° |
| 2026-04-28 12:02 | 44.95218 | -59.44451 | 44463 ft | 453 kts | 280° |
| 2026-04-28 12:02 | 44.96275 | -59.53175 | 44451 ft | 448 kts | 280° |
| 2026-04-28 12:03 | 44.97324 | -59.61886 | 44446 ft | 449 kts | 280° |
| 2026-04-28 12:03 | 44.97837 | -59.66176 | 44438 ft | 437 kts | 280° |
| 2026-04-28 12:03 | 44.98339 | -59.70392 | 44445 ft | 435 kts | 280° |
| 2026-04-28 12:04 | 44.99351 | -59.78899 | 44439 ft | 441 kts | 280° |
| 2026-04-28 12:04 | 45.00355 | -59.87423 | 44441 ft | 438 kts | 280° |
| 2026-04-28 12:05 | 45.01349 | -59.95903 | 44432 ft | 437 kts | 280° |
| 2026-04-28 12:05 | 45.02340 | -60.04410 | 44433 ft | 440 kts | 280° |
| 2026-04-28 12:06 | 45.03328 | -60.12952 | 44433 ft | 442 kts | 280° |
| 2026-04-28 12:06 | 45.04313 | -60.21529 | 44429 ft | 441 kts | 280° |
| 2026-04-28 12:07 | 45.05281 | -60.30018 | 44423 ft | 438 kts | 280° |
| 2026-04-28 12:07 | 45.06243 | -60.38509 | 44429 ft | 438 kts | 280° |
| 2026-04-28 12:08 | 45.07205 | -60.47055 | 44426 ft | 441 kts | 280° |
| 2026-04-28 12:08 | 45.08164 | -60.55643 | 44436 ft | 442 kts | 280° |
| 2026-04-28 12:09 | 45.09114 | -60.64206 | 44438 ft | 439 kts | 280° |
| 2026-04-28 12:09 | 45.10057 | -60.72755 | 44056 ft | 444 kts | 280° |
| 2026-04-28 12:10 | 45.10532 | -60.77088 | 43461 ft | 442 kts | 279° |
| 2026-04-28 12:10 | 45.10632 | -60.77998 | 43224 ft | 443 kts | 279° |